Time;durP1;ratioP1;P1;durP2;ratioP2;P2;SDS_P1;SDS_P2;PMS_P1;PMS_P2;Temp;Humidity;BMP_temperature;BMP_pressure;BME280_temperature;BME280_humidity;BME280_pressure;Samples;Min_cycle;Max_cycle;Signal;HPM_P1;HPM_P2
2023/03/02 00:01:05;;;;;;;22.35;14.00;;;6.40;54.50;;;;;;5094860;28;20039;-66
2023/03/02 00:03:32;;;;;;;23.77;14.82;;;6.30;54.80;;;;;;5096472;28;20384;-66
2023/03/02 00:05:58;;;;;;;25.80;14.00;;;6.30;55.00;;;;;;5078922;28;20070;-66
2023/03/02 00:08:25;;;;;;;23.30;15.05;;;6.30;55.40;;;;;;5096810;28;20357;-66
2023/03/02 00:10:53;;;;;;;26.95;15.68;;;6.30;55.70;;;;;;5097586;28;20495;-66
2023/03/02 00:13:19;;;;;;;25.35;15.55;;;6.30;55.90;;;;;;5095665;28;20148;-66
2023/03/02 00:15:45;;;;;;;27.17;16.90;;;6.30;56.10;;;;;;5084690;28;20039;-66
2023/03/02 00:18:11;;;;;;;28.40;17.00;;;6.30;56.50;;;;;;5074959;28;20029;-66
2023/03/02 00:20:37;;;;;;;26.55;16.95;;;6.20;56.80;;;;;;5090975;28;20040;-66
2023/03/02 00:23:03;;;;;;;27.92;16.73;;;6.20;57.10;;;;;;5096253;28;20024;-66
2023/03/02 00:25:29;;;;;;;25.95;16.92;;;6.10;57.40;;;;;;5095041;28;20129;-65
2023/03/02 00:27:55;;;;;;;26.73;16.20;;;6.10;57.70;;;;;;5095293;28;20085;-66
2023/03/02 00:30:21;;;;;;;32.85;19.13;;;6.10;58.00;;;;;;5097143;28;20103;-66
2023/03/02 00:32:46;;;;;;;33.05;18.83;;;6.10;58.20;;;;;;5085437;28;20031;-66
2023/03/02 00:35:12;;;;;;;32.33;18.40;;;6.00;58.50;;;;;;5095232;28;20103;-66
2023/03/02 00:37:38;;;;;;;31.42;20.27;;;6.00;58.80;;;;;;5099629;28;20372;-66
2023/03/02 00:40:06;;;;;;;34.17;19.73;;;5.90;58.90;;;;;;5095065;28;20456;-66
2023/03/02 00:42:32;;;;;;;33.78;19.23;;;5.90;59.20;;;;;;5096957;28;20048;-66
2023/03/02 00:45:00;;;;;;;33.10;19.33;;;5.90;59.50;;;;;;5095917;28;20096;-66
2023/03/02 00:47:32;;;;;;;34.08;20.05;;;5.80;59.60;;;;;;5090326;28;20081;-66
2023/03/02 00:49:58;;;;;;;33.50;20.05;;;5.90;60.00;;;;;;5095788;28;20020;-66
2023/03/02 00:52:24;;;;;;;34.65;21.42;;;5.90;60.70;;;;;;5095436;28;20107;-66
2023/03/02 00:54:50;;;;;;;33.90;19.73;;;5.80;60.10;;;;;;5095792;28;20024;-66
2023/03/02 00:57:15;;;;;;;32.97;19.42;;;5.80;60.30;;;;;;5091378;28;20373;-66
2023/03/02 00:59:41;;;;;;;31.83;19.15;;;5.80;60.40;;;;;;5078607;28;20119;-66
2023/03/02 01:02:16;;;;;;;35.72;20.95;;;5.80;60.70;;;;;;5095514;28;20024;-66
2023/03/02 01:04:43;;;;;;;33.63;20.08;;;5.80;60.70;;;;;;5097214;28;20433;-66
2023/03/02 01:07:13;;;;;;;35.03;20.75;;;5.80;61.00;;;;;;5094796;28;20072;-65
2023/03/02 01:09:40;;;;;;;34.35;21.20;;;5.80;61.20;;;;;;5099103;28;20031;-66
2023/03/02 01:12:10;;;;;;;36.40;20.90;;;5.80;61.40;;;;;;5095823;28;20073;-66
2023/03/02 01:14:41;;;;;;;37.25;20.48;;;5.80;61.40;;;;;;5095426;28;20042;-66
2023/03/02 01:17:08;;;;;;;;;;;5.70;61.60;;;;;;5095663;28;20463;-66
2023/03/02 01:19:35;;;;;;;31.33;17.92;;;5.70;61.40;;;;;;5094212;28;20032;-66
2023/03/02 01:22:01;;;;;;;33.60;19.17;;;5.70;61.40;;;;;;5108642;28;20031;-66
2023/03/02 01:24:27;;;;;;;31.45;18.65;;;5.70;61.50;;;;;;5077619;28;20032;-66
2023/03/02 01:26:53;;;;;;;32.85;19.27;;;5.70;61.60;;;;;;5098759;28;20024;-66
2023/03/02 01:29:19;;;;;;;34.00;19.83;;;5.70;61.70;;;;;;5080646;28;20032;-66
2023/03/02 01:31:45;;;;;;;34.65;20.50;;;5.70;61.90;;;;;;5091767;28;20027;-66
2023/03/02 01:34:11;;;;;;;34.25;19.40;;;5.70;61.90;;;;;;5089680;28;20073;-65
2023/03/02 01:36:37;;;;;;;33.67;19.17;;;5.80;62.00;;;;;;5094014;28;20473;-65
2023/03/02 01:39:03;;;;;;;32.00;18.65;;;5.80;62.00;;;;;;5092260;28;20065;-65
2023/03/02 01:41:30;;;;;;;34.75;18.30;;;5.70;61.90;;;;;;5095863;28;20099;-65
2023/03/02 01:43:56;;;;;;;33.65;19.58;;;5.80;61.90;;;;;;5094818;28;20421;-66
2023/03/02 01:46:25;;;;;;;34.45;18.75;;;5.80;61.90;;;;;;5094181;28;20118;-66
2023/03/02 01:49:05;;;;;;;31.13;18.08;;;5.70;62.00;;;;;;5089400;28;20457;-66
2023/03/02 01:52:00;;;;;;;33.30;18.35;;;5.70;62.10;;;;;;5090083;28;20035;-65
2023/03/02 01:54:25;;;;;;;31.58;19.20;;;5.70;62.00;;;;;;5093933;28;20020;-65
2023/03/02 01:56:58;;;;;;;33.38;19.48;;;5.70;62.20;;;;;;5094917;28;20031;-65
2023/03/02 01:59:29;;;;;;;33.78;18.52;;;5.70;62.30;;;;;;5092923;28;20320;-65
2023/03/02 02:01:59;;;;;;;31.58;17.30;;;5.70;62.40;;;;;;5077637;28;20115;-66
2023/03/02 02:04:27;;;;;;;31.30;18.17;;;5.60;62.40;;;;;;5093972;28;20437;-66
2023/03/02 02:07:01;;;;;;;31.58;18.38;;;5.70;62.50;;;;;;5094468;28;20483;-66
2023/03/02 02:09:30;;;;;;;34.13;18.95;;;5.60;62.80;;;;;;5082533;28;20028;-66
2023/03/02 02:11:56;;;;;;;38.00;19.47;;;5.60;62.70;;;;;;5094233;28;20020;-66
2023/03/02 02:14:23;;;;;;;34.80;19.53;;;5.60;62.80;;;;;;5093175;28;20456;-65
2023/03/02 02:16:50;;;;;;;33.13;18.83;;;5.60;62.90;;;;;;5095455;28;20325;-65
2023/03/02 02:19:42;;;;;;;37.00;21.47;;;5.60;62.80;;;;;;5092593;28;20031;-65
2023/03/02 02:22:14;;;;;;;30.75;18.15;;;5.60;63.00;;;;;;5082149;28;20028;-65
2023/03/02 02:24:45;;;;;;;31.65;17.77;;;5.50;62.90;;;;;;5091377;28;20103;-65
2023/03/02 02:27:12;;;;;;;30.95;18.10;;;5.50;62.90;;;;;;5085945;28;20045;-66
2023/03/02 02:29:50;;;;;;;32.40;17.75;;;5.50;62.80;;;;;;5093690;28;20021;-65
2023/03/02 02:32:26;;;;;;;29.33;16.70;;;5.50;62.70;;;;;;5084321;28;20062;-65
2023/03/02 02:35:10;;;;;;;30.02;17.23;;;5.50;62.70;;;;;;5097211;28;20020;-66
2023/03/02 02:37:44;;;;;;;30.92;17.73;;;5.50;62.60;;;;;;5091279;28;20302;-65
2023/03/02 02:40:45;;;;;;;32.03;16.77;;;5.50;62.50;;;;;;5073962;28;20624;-66
2023/03/02 02:43:17;;;;;;;28.70;15.90;;;5.50;62.50;;;;;;5102424;27;20062;-66
2023/03/02 02:45:45;;;;;;;27.25;16.27;;;5.50;62.50;;;;;;5088930;28;20119;-65
2023/03/02 02:48:16;;;;;;;33.47;19.10;;;5.50;62.50;;;;;;5094648;28;20126;-65
2023/03/02 02:50:43;;;;;;;;;;;5.50;62.60;;;;;;5083868;28;20411;-66
2023/03/02 02:53:17;;;;;;;29.85;15.38;;;5.40;62.50;;;;;;5092871;28;19959;-66
2023/03/02 02:55:46;;;;;;;29.80;17.33;;;5.40;62.50;;;;;;5098173;28;20110;-65
2023/03/02 02:58:27;;;;;;;31.88;17.63;;;5.40;62.40;;;;;;5087543;28;20495;-66
2023/03/02 03:00:54;;;;;;;31.60;17.45;;;5.40;62.50;;;;;;5084904;28;20038;-66
2023/03/02 03:03:32;;;;;;;34.13;18.60;;;5.40;62.50;;;;;;5082228;28;20067;-65
2023/03/02 03:06:04;;;;;;;31.67;17.38;;;5.30;62.60;;;;;;5090962;28;20526;-65
2023/03/02 03:08:42;;;;;;;33.03;17.90;;;5.30;62.60;;;;;;5092540;28;20315;-65
2023/03/02 03:11:13;;;;;;;34.40;17.43;;;5.30;62.80;;;;;;5074957;28;20032;-65
2023/03/02 03:13:41;;;;;;;31.10;18.07;;;5.30;62.80;;;;;;5080890;28;20024;-65
2023/03/02 03:16:11;;;;;;;33.37;18.47;;;5.20;62.90;;;;;;5093388;28;20425;-65
2023/03/02 03:18:39;;;;;;;34.73;17.77;;;5.20;63.00;;;;;;5093360;28;20028;-66
2023/03/02 03:21:05;;;;;;;36.47;19.70;;;5.30;63.10;;;;;;5093554;28;20070;-66
2023/03/02 03:23:31;;;;;;;36.85;19.88;;;5.20;63.10;;;;;;5092148;28;20031;-65
2023/03/02 03:25:57;;;;;;;35.30;17.98;;;5.20;63.20;;;;;;5091945;28;20055;-65
2023/03/02 03:28:23;;;;;;;34.97;19.25;;;5.20;63.40;;;;;;5106254;28;20127;-65
2023/03/02 03:30:49;;;;;;;35.85;19.02;;;5.20;63.50;;;;;;5096546;28;20024;-65
2023/03/02 03:33:15;;;;;;;36.85;19.75;;;5.20;63.50;;;;;;5086588;28;20394;-65
2023/03/02 03:35:41;;;;;;;38.55;19.73;;;5.10;63.60;;;;;;5090969;28;20425;-65
2023/03/02 03:38:07;;;;;;;33.97;19.33;;;5.10;63.70;;;;;;5092231;28;20384;-65
2023/03/02 03:40:33;;;;;;;32.97;18.20;;;5.10;63.80;;;;;;5092776;28;20024;-65
2023/03/02 03:43:01;;;;;;;35.13;19.30;;;5.00;63.90;;;;;;5091101;28;20028;-65
2023/03/02 03:45:27;;;;;;;32.35;18.83;;;5.00;64.00;;;;;;5092343;28;20039;-65
2023/03/02 03:47:54;;;;;;;34.13;17.97;;;5.00;64.10;;;;;;5098499;28;20052;-65
2023/03/02 03:50:20;;;;;;;34.27;19.43;;;4.90;64.20;;;;;;5093792;28;20043;-65
2023/03/02 03:52:46;;;;;;;36.00;18.97;;;4.90;64.40;;;;;;5090397;28;20021;-65
2023/03/02 03:55:18;;;;;;;35.03;18.67;;;4.90;64.40;;;;;;5091767;28;20028;-65
2023/03/02 03:57:46;;;;;;;33.23;17.10;;;4.80;64.40;;;;;;5095470;28;20040;-65
2023/03/02 04:00:16;;;;;;;37.37;19.57;;;4.80;64.50;;;;;;5092719;28;20035;-65
2023/03/02 04:02:46;;;;;;;34.22;18.98;;;4.80;64.50;;;;;;5088497;28;20059;-65
2023/03/02 04:05:13;;;;;;;33.80;18.50;;;4.80;64.50;;;;;;5073266;28;20023;-65
2023/03/02 04:07:40;;;;;;;34.35;18.90;;;4.80;64.60;;;;;;5090244;28;20089;-65
2023/03/02 04:10:08;;;;;;;31.30;18.30;;;4.80;64.50;;;;;;5090710;28;20027;-65
2023/03/02 04:12:38;;;;;;;32.58;17.38;;;4.80;64.50;;;;;;5090172;28;20065;-65
2023/03/02 04:15:07;;;;;;;35.60;16.90;;;4.80;64.40;;;;;;5088445;28;20472;-65
2023/03/02 04:17:32;;;;;;;29.80;16.77;;;4.80;64.40;;;;;;5091622;28;20043;-65
2023/03/02 04:19:59;;;;;;;35.03;16.98;;;4.80;64.30;;;;;;5090572;28;20024;-65
2023/03/02 04:22:25;;;;;;;34.70;18.27;;;4.80;64.30;;;;;;5091258;28;20035;-65
2023/03/02 04:24:51;;;;;;;33.03;17.70;;;4.80;64.40;;;;;;5088462;28;20025;-65
2023/03/02 04:27:18;;;;;;;32.50;17.73;;;4.80;64.40;;;;;;5091291;28;20052;-65
2023/03/02 04:29:45;;;;;;;32.90;18.00;;;4.80;64.40;;;;;;5091550;28;20020;-65
2023/03/02 04:32:13;;;;;;;31.90;17.23;;;4.80;64.40;;;;;;5092269;28;20416;-65
2023/03/02 04:34:40;;;;;;;31.50;17.47;;;4.70;64.30;;;;;;5091297;28;20028;-65
2023/03/02 04:37:06;;;;;;;34.28;18.58;;;4.70;64.40;;;;;;5093156;28;20032;-65
2023/03/02 04:39:32;;;;;;;37.03;17.30;;;4.70;64.50;;;;;;5090450;28;20483;-65
2023/03/02 04:41:58;;;;;;;34.97;17.87;;;4.70;64.50;;;;;;5092743;28;20028;-65
2023/03/02 04:44:24;;;;;;;33.40;17.07;;;4.70;64.50;;;;;;5092524;28;20035;-65
2023/03/02 04:46:50;;;;;;;30.97;16.17;;;4.70;64.50;;;;;;5099356;28;20302;-66
2023/03/02 04:49:17;;;;;;;33.95;18.42;;;4.70;64.50;;;;;;5095495;28;20329;-65
2023/03/02 04:51:45;;;;;;;32.63;16.90;;;4.70;64.50;;;;;;5094832;28;20081;-65
2023/03/02 04:54:18;;;;;;;30.90;17.43;;;4.70;64.40;;;;;;5095964;28;20081;-65
2023/03/02 04:56:47;;;;;;;33.20;17.00;;;4.70;64.30;;;;;;5093874;28;20024;-65
2023/03/02 04:59:14;;;;;;;32.45;16.58;;;4.70;64.30;;;;;;5092538;28;20044;-65
2023/03/02 05:01:40;;;;;;;32.13;16.97;;;4.70;64.30;;;;;;5094926;28;20437;-65
2023/03/02 05:04:06;;;;;;;32.77;16.97;;;4.70;64.20;;;;;;5093939;28;20020;-65
2023/03/02 05:06:32;;;;;;;32.43;18.10;;;4.70;64.20;;;;;;5091823;28;20047;-65
2023/03/02 05:08:58;;;;;;;34.70;17.93;;;4.70;64.20;;;;;;5096049;28;20066;-65
2023/03/02 05:11:25;;;;;;;32.60;17.03;;;4.70;64.20;;;;;;5094962;28;20054;-65
2023/03/02 05:13:57;;;;;;;28.73;15.73;;;4.70;64.10;;;;;;5096403;28;20020;-65
2023/03/02 05:16:25;;;;;;;32.30;15.43;;;4.70;63.90;;;;;;5097256;28;20020;-65
2023/03/02 05:18:50;;;;;;;33.67;16.80;;;4.70;63.80;;;;;;5093009;28;20035;-65
2023/03/02 05:21:17;;;;;;;29.27;14.70;;;4.70;63.70;;;;;;5095299;28;20028;-65
2023/03/02 05:23:43;;;;;;;30.00;15.80;;;4.70;63.50;;;;;;5096480;28;20032;-65
2023/03/02 05:26:09;;;;;;;29.10;14.93;;;4.70;63.40;;;;;;5101275;28;20042;-65
2023/03/02 05:28:35;;;;;;;29.60;15.63;;;4.70;63.20;;;;;;5090546;28;20021;-65
2023/03/02 05:31:01;;;;;;;28.60;15.90;;;4.70;63.20;;;;;;5093633;28;20016;-65
2023/03/02 05:33:28;;;;;;;30.43;15.67;;;4.70;63.10;;;;;;5095092;28;20361;-65
2023/03/02 05:35:53;;;;;;;30.80;16.33;;;4.70;63.10;;;;;;5094912;28;20024;-65
2023/03/02 05:38:19;;;;;;;29.77;15.70;;;4.70;63.10;;;;;;5094424;28;20465;-65
2023/03/02 05:40:45;;;;;;;31.27;16.40;;;4.60;63.10;;;;;;5094747;28;20024;-65
2023/03/02 05:43:15;;;;;;;33.17;17.73;;;4.60;63.10;;;;;;5094007;28;20024;-65
2023/03/02 05:45:41;;;;;;;30.23;16.63;;;4.60;63.20;;;;;;5093741;28;20096;-65
2023/03/02 05:48:07;;;;;;;28.63;15.57;;;4.60;63.20;;;;;;5094637;28;20121;-65
2023/03/02 05:50:33;;;;;;;31.20;16.83;;;4.60;63.20;;;;;;5094751;28;20016;-65
2023/03/02 05:53:01;;;;;;;33.53;16.20;;;4.60;63.20;;;;;;5098860;28;20023;-65
2023/03/02 05:55:27;;;;;;;31.03;16.10;;;4.60;63.30;;;;;;5094830;28;20056;-66
2023/03/02 05:57:53;;;;;;;32.57;16.43;;;4.50;63.40;;;;;;5090061;28;20081;-66
2023/03/02 06:00:20;;;;;;;31.80;16.93;;;4.50;63.50;;;;;;5086693;28;20028;-65
2023/03/02 06:02:45;;;;;;;34.90;16.93;;;4.40;63.60;;;;;;5093350;28;20118;-65
2023/03/02 06:05:14;;;;;;;30.40;15.43;;;4.40;63.70;;;;;;5094791;28;20028;-65
2023/03/02 06:07:40;;;;;;;33.50;17.60;;;4.30;63.80;;;;;;5093273;28;20052;-65
2023/03/02 06:10:08;;;;;;;32.97;18.00;;;4.30;63.80;;;;;;5093539;28;20026;-65
2023/03/02 06:12:34;;;;;;;34.77;17.17;;;4.30;63.90;;;;;;5094259;28;20032;-65
2023/03/02 06:15:00;;;;;;;32.40;17.50;;;4.30;63.80;;;;;;5105140;28;20069;-65
2023/03/02 06:17:26;;;;;;;32.97;16.90;;;4.30;63.80;;;;;;5094588;28;20032;-65
2023/03/02 06:19:52;;;;;;;34.20;16.77;;;4.40;63.80;;;;;;5084218;28;20367;-65
2023/03/02 06:22:18;;;;;;;32.73;16.87;;;4.30;63.70;;;;;;5093200;28;20088;-65
2023/03/02 06:24:44;;;;;;;32.57;15.67;;;4.30;63.70;;;;;;5092923;28;20027;-65
2023/03/02 06:27:11;;;;;;;31.03;15.20;;;4.40;63.70;;;;;;5099088;28;20103;-65
2023/03/02 06:29:37;;;;;;;34.47;16.87;;;4.40;63.60;;;;;;5084749;28;20021;-65
2023/03/02 06:32:03;;;;;;;34.27;19.27;;;4.30;63.60;;;;;;5090913;28;20032;-65
2023/03/02 06:34:29;;;;;;;29.67;16.53;;;4.30;63.60;;;;;;5094099;28;20071;-65
2023/03/02 06:36:54;;;;;;;32.43;16.50;;;4.30;63.50;;;;;;5093338;28;20111;-65
2023/03/02 06:39:20;;;;;;;34.53;16.93;;;4.30;63.60;;;;;;5094788;28;20115;-65
2023/03/02 06:41:47;;;;;;;30.33;16.00;;;4.30;64.20;;;;;;5093612;28;20066;-64
2023/03/02 06:44:15;;;;;;;32.37;15.93;;;4.40;63.50;;;;;;5096217;28;20087;-65
2023/03/02 06:46:41;;;;;;;31.00;15.50;;;4.40;63.40;;;;;;5097930;28;20129;-65
2023/03/02 06:49:08;;;;;;;30.63;14.53;;;4.40;63.30;;;;;;5092309;28;20444;-65
2023/03/02 06:51:34;;;;;;;29.30;15.90;;;4.40;63.10;;;;;;5093458;28;20044;-65
2023/03/02 06:54:00;;;;;;;29.23;16.23;;;4.40;63.00;;;;;;5093431;28;20502;-65
2023/03/02 06:56:26;;;;;;;28.53;14.63;;;4.50;62.90;;;;;;5091960;28;20028;-65
2023/03/02 06:58:52;;;;;;;32.27;14.40;;;4.50;62.80;;;;;;5089091;28;20111;-65
2023/03/02 07:01:18;;;;;;;27.17;13.77;;;4.50;62.60;;;;;;5086583;28;20071;-64
2023/03/02 07:03:44;;;;;;;27.60;14.10;;;4.50;62.50;;;;;;5090026;28;20142;-63
2023/03/02 07:06:12;;;;;;;28.37;14.60;;;4.60;62.40;;;;;;5074976;28;20024;-65
2023/03/02 07:08:38;;;;;;;26.93;13.50;;;4.60;62.20;;;;;;5077782;28;20176;-64
2023/03/02 07:11:05;;;;;;;31.17;15.13;;;4.60;62.20;;;;;;5088499;28;20200;-64
2023/03/02 07:13:31;;;;;;;24.13;13.47;;;4.70;62.00;;;;;;5091497;28;20020;-64
2023/03/02 07:15:57;;;;;;;29.50;15.67;;;4.70;61.90;;;;;;5097488;28;20443;-64
2023/03/02 07:18:23;;;;;;;29.37;14.00;;;4.70;61.80;;;;;;5093577;28;20032;-64
2023/03/02 07:20:48;;;;;;;33.07;15.57;;;4.80;61.70;;;;;;5093262;28;20031;-64
2023/03/02 07:23:14;;;;;;;29.63;14.87;;;4.80;61.60;;;;;;5092321;28;20472;-64
2023/03/02 07:25:40;;;;;;;26.67;13.33;;;4.80;61.50;;;;;;5093349;28;20028;-66
2023/03/02 07:28:06;;;;;;;26.77;14.60;;;4.90;61.40;;;;;;5094078;28;20024;-65
2023/03/02 07:30:31;;;;;;;29.23;14.27;;;4.90;61.30;;;;;;5092232;28;20024;-64
2023/03/02 07:32:57;;;;;;;28.27;14.90;;;5.00;61.80;;;;;;5093476;28;20028;-65
2023/03/02 07:35:23;;;;;;;28.03;14.13;;;5.10;61.10;;;;;;5090532;28;20387;-64
2023/03/02 07:37:51;;;;;;;27.70;14.07;;;5.20;60.80;;;;;;5095855;28;20077;-65
2023/03/02 07:40:17;;;;;;;26.03;12.97;;;5.40;60.60;;;;;;5093500;28;20082;-64
2023/03/02 07:42:43;;;;;;;26.40;13.57;;;5.50;60.30;;;;;;5094075;28;20027;-64
2023/03/02 07:45:10;;;;;;;23.60;12.10;;;5.60;60.10;;;;;;5096818;28;20110;-64
2023/03/02 07:47:36;;;;;;;26.47;12.20;;;5.70;59.90;;;;;;5099365;28;20048;-64
2023/03/02 07:50:02;;;;;;;26.43;12.73;;;5.80;59.70;;;;;;5091680;28;20433;-64
2023/03/02 07:52:29;;;;;;;24.07;11.77;;;5.80;59.60;;;;;;5091704;28;20123;-65
2023/03/02 07:54:55;;;;;;;25.27;12.63;;;6.00;59.60;;;;;;5097484;28;20127;-64
2023/03/02 07:57:21;;;;;;;26.30;12.67;;;6.20;59.50;;;;;;5096252;28;20038;-63
2023/03/02 07:59:47;;;;;;;26.43;13.17;;;6.30;59.30;;;;;;5100387;28;20058;-64
2023/03/02 08:02:15;;;;;;;24.17;13.20;;;6.40;59.10;;;;;;5100966;28;20035;-63
2023/03/02 08:04:41;;;;;;;24.77;12.77;;;6.50;58.90;;;;;;5083872;28;20049;-65
2023/03/02 08:07:07;;;;;;;24.38;12.32;;;6.60;58.90;;;;;;5092028;28;20032;-64
2023/03/02 08:09:32;;;;;;;26.13;12.50;;;6.70;58.70;;;;;;5091635;28;20028;-65
2023/03/02 08:11:58;;;;;;;26.30;13.32;;;6.80;58.60;;;;;;5093456;28;20025;-64
2023/03/02 08:14:24;;;;;;;24.08;12.88;;;6.90;58.40;;;;;;5091886;28;20028;-64
2023/03/02 08:16:51;;;;;;;24.13;13.35;;;7.00;58.30;;;;;;5091827;28;20063;-64
2023/03/02 08:19:18;;;;;;;25.55;12.57;;;7.10;58.10;;;;;;5095579;28;20023;-64
2023/03/02 08:21:44;;;;;;;22.92;11.65;;;7.20;58.00;;;;;;5093777;28;20480;-64
2023/03/02 08:24:11;;;;;;;22.27;11.93;;;7.20;57.80;;;;;;5088738;28;20476;-64
2023/03/02 08:26:37;;;;;;;23.38;12.80;;;7.30;57.70;;;;;;5096635;28;20093;-65
2023/03/02 08:29:03;;;;;;;23.10;12.27;;;7.40;57.70;;;;;;5090809;28;20115;-65
2023/03/02 08:31:29;;;;;;;21.08;10.93;;;7.50;57.50;;;;;;5076718;28;20048;-66
2023/03/02 08:33:55;;;;;;;24.15;12.18;;;7.60;57.30;;;;;;5061408;28;20051;-65
2023/03/02 08:36:21;;;;;;;23.60;12.82;;;7.70;57.20;;;;;;5077434;28;20028;-65
2023/03/02 08:38:47;;;;;;;25.02;11.65;;;7.80;57.00;;;;;;5096252;28;20028;-65
2023/03/02 08:41:18;;;;;;;25.90;12.23;;;7.90;56.80;;;;;;5095991;28;20030;-66
2023/03/02 08:43:44;;;;;;;23.33;12.00;;;8.10;56.50;;;;;;5096230;28;20032;-66
2023/03/02 08:46:12;;;;;;;22.83;11.30;;;8.30;56.30;;;;;;5094994;28;20413;-68
2023/03/02 08:48:38;;;;;;;21.23;10.98;;;8.40;56.00;;;;;;5098442;28;20096;-66
2023/03/02 08:51:10;;;;;;;24.13;11.90;;;8.60;55.80;;;;;;5096385;28;20170;-66
2023/03/02 08:53:39;;;;;;;20.90;10.80;;;8.70;55.50;;;;;;5095295;28;20016;-66
2023/03/02 08:56:18;;;;;;;23.00;10.95;;;8.90;55.30;;;;;;5090094;28;20032;-66
2023/03/02 08:58:46;;;;;;;23.27;10.60;;;9.00;55.00;;;;;;5095204;28;20035;-66
2023/03/02 09:01:17;;;;;;;20.60;11.15;;;9.10;54.80;;;;;;5097243;28;20081;-66
2023/03/02 09:03:43;;;;;;;23.42;11.40;;;9.30;54.50;;;;;;5095892;28;20115;-67
2023/03/02 09:06:09;;;;;;;22.45;11.20;;;9.40;54.40;;;;;;5087128;28;20066;-66
2023/03/02 09:08:35;;;;;;;22.48;10.52;;;9.50;54.20;;;;;;5093333;28;20099;-67
2023/03/02 09:11:01;;;;;;;19.98;10.75;;;9.70;53.90;;;;;;5100658;28;20039;-67
2023/03/02 09:13:27;;;;;;;20.77;10.93;;;9.90;53.60;;;;;;5095591;28;20111;-67
2023/03/02 09:15:52;;;;;;;21.38;10.88;;;10.10;53.30;;;;;;5091535;28;20059;-67
2023/03/02 09:18:18;;;;;;;19.30;10.20;;;10.10;53.10;;;;;;5095399;28;20024;-68
2023/03/02 09:20:48;;;;;;;21.55;10.98;;;10.20;52.90;;;;;;5096942;28;20383;-75
2023/03/02 09:23:13;;;;;;;21.65;10.65;;;10.30;52.70;;;;;;5093433;28;20043;-66
2023/03/02 09:25:39;;;;;;;23.77;11.65;;;10.40;52.60;;;;;;5104106;28;20028;-66
2023/03/02 09:28:05;;;;;;;19.85;10.02;;;10.50;52.40;;;;;;5095027;28;20301;-67
2023/03/02 09:30:31;;;;;;;20.52;10.68;;;10.60;52.30;;;;;;5095037;28;20028;-67
2023/03/02 09:32:57;;;;;;;24.00;11.90;;;10.70;52.10;;;;;;5100514;28;20437;-67
2023/03/02 09:35:22;;;;;;;21.45;11.13;;;10.80;52.00;;;;;;5095347;28;20089;-67
2023/03/02 09:37:48;;;;;;;20.00;11.00;;;10.80;51.90;;;;;;5063171;28;20090;-68
2023/03/02 09:40:21;;;;;;;20.02;11.38;;;10.90;51.80;;;;;;5087495;28;20065;-68
2023/03/02 09:43:15;;;;;;;20.17;10.82;;;11.00;51.70;;;;;;5096066;28;20040;-68
2023/03/02 09:45:50;;;;;;;21.95;10.70;;;11.10;51.50;;;;;;5074246;28;20051;-68
2023/03/02 09:48:37;;;;;;;20.90;9.90;;;11.20;51.40;;;;;;5094378;28;20445;-68
2023/03/02 09:51:14;;;;;;;20.83;11.45;;;11.20;51.20;;;;;;5100526;28;20047;-68
2023/03/02 09:53:51;;;;;;;20.35;10.52;;;11.30;51.00;;;;;;5101410;28;20107;-67
2023/03/02 09:56:18;;;;;;;20.00;10.77;;;11.30;50.90;;;;;;5095731;28;20040;-68
2023/03/02 09:58:52;;;;;;;19.58;11.10;;;11.30;50.80;;;;;;5081334;28;20025;-68
2023/03/02 10:01:34;;;;;;;19.45;10.07;;;11.40;50.80;;;;;;5090936;28;20023;-68
2023/03/02 10:04:26;;;;;;;20.08;10.80;;;11.40;50.60;;;;;;5107389;28;20035;-68
2023/03/02 10:07:00;;;;;;;20.35;11.05;;;11.40;50.50;;;;;;5086024;28;20333;-67
2023/03/02 10:09:26;;;;;;;19.48;9.57;;;11.40;50.50;;;;;;5090605;28;20039;-68
2023/03/02 10:12:25;;;;;;;19.55;10.65;;;11.50;50.50;;;;;;5092361;28;20032;-68
2023/03/02 10:15:03;;;;;;;20.27;10.82;;;11.50;50.00;;;;;;5091989;28;20453;-68
2023/03/02 10:17:51;;;;;;;17.80;10.10;;;11.60;50.10;;;;;;5102433;28;20178;-68
2023/03/02 10:20:47;;;;;;;21.80;11.10;;;11.70;49.90;;;;;;5092283;28;20036;-68
2023/03/02 10:23:22;;;;;;;19.30;10.07;;;11.70;50.00;;;;;;5065276;28;20373;-68
2023/03/02 10:26:12;;;;;;;19.38;9.23;;;11.80;49.80;;;;;;5094477;28;20028;-68
2023/03/02 10:28:44;;;;;;;19.80;9.60;;;11.90;50.20;;;;;;5097048;28;20463;-67
2023/03/02 10:31:44;;;;;;;20.48;9.68;;;11.90;49.50;;;;;;5091497;28;20058;-68
2023/03/02 10:34:11;;;;;;;19.95;10.00;;;12.00;49.30;;;;;;5087744;28;20442;-68
2023/03/02 10:36:39;;;;;;;17.85;9.27;;;11.90;49.20;;;;;;5094405;28;20125;-68
2023/03/02 10:39:16;;;;;;;17.33;8.93;;;11.90;49.20;;;;;;5087557;28;20032;-68
2023/03/02 10:41:50;;;;;;;19.98;9.50;;;12.00;48.80;;;;;;5094420;28;20024;-68
2023/03/02 10:44:24;;;;;;;16.33;8.00;;;12.00;48.70;;;;;;5089652;28;20445;-68
2023/03/02 10:46:52;;;;;;;17.13;8.43;;;12.10;48.50;;;;;;5093649;28;20063;-67
2023/03/02 10:49:29;;;;;;;17.83;9.10;;;12.20;48.30;;;;;;5091742;28;20020;-67
2023/03/02 10:52:05;;;;;;;14.30;7.72;;;12.30;47.90;;;;;;5093495;28;20059;-68
2023/03/02 10:54:33;;;;;;;15.20;8.50;;;12.40;47.90;;;;;;5074840;28;20024;-68
2023/03/02 10:57:02;;;;;;;19.15;9.13;;;12.40;47.70;;;;;;5091200;28;20020;-68
2023/03/02 10:59:39;;;;;;;15.70;8.23;;;12.50;47.40;;;;;;5097379;28;20024;-68
2023/03/02 11:02:23;;;;;;;14.25;7.55;;;12.60;47.40;;;;;;5096172;28;20028;-68
2023/03/02 11:05:15;;;;;;;14.45;6.82;;;12.70;47.20;;;;;;5092281;28;20031;-68
2023/03/02 11:07:52;;;;;;;14.52;7.07;;;12.80;47.10;;;;;;5088272;28;20040;-67
2023/03/02 11:10:21;;;;;;;20.42;8.20;;;12.90;47.10;;;;;;5090693;28;20463;-67
2023/03/02 11:12:49;;;;;;;13.82;7.13;;;12.80;47.20;;;;;;5087536;28;20111;-67
2023/03/02 11:15:34;;;;;;;14.98;7.88;;;12.80;47.10;;;;;;5087001;28;20336;-67
2023/03/02 11:18:28;;;;;;;13.40;6.32;;;12.90;47.00;;;;;;5088234;28;20034;-67
2023/03/02 11:21:09;;;;;;;13.20;6.30;;;12.90;47.00;;;;;;5092392;28;20031;-66
2023/03/02 11:23:59;;;;;;;14.50;7.28;;;12.90;47.10;;;;;;5094182;28;20099;-67
2023/03/02 11:26:33;;;;;;;14.20;7.45;;;12.90;47.00;;;;;;5094006;28;20031;-67
2023/03/02 11:29:04;;;;;;;14.20;7.07;;;12.90;47.20;;;;;;5092691;28;20019;-67
2023/03/02 11:31:46;;;;;;;15.43;7.85;;;12.90;47.10;;;;;;5089283;28;20321;-67
2023/03/02 11:34:24;;;;;;;14.63;7.80;;;12.90;47.10;;;;;;5089808;28;20359;-66
2023/03/02 11:37:08;;;;;;;13.77;7.00;;;12.90;47.20;;;;;;5090605;28;20024;-67
2023/03/02 11:39:57;;;;;;;15.32;7.45;;;12.90;47.30;;;;;;5090524;28;20035;-67
2023/03/02 11:42:35;;;;;;;14.43;7.13;;;13.00;47.30;;;;;;5078708;28;20036;-67
2023/03/02 11:45:26;;;;;;;15.35;7.88;;;13.00;47.20;;;;;;5092629;28;20034;-68
2023/03/02 11:48:07;;;;;;;13.98;7.32;;;13.00;47.00;;;;;;5088713;28;20062;-66
2023/03/02 11:50:40;;;;;;;12.93;6.82;;;13.00;47.00;;;;;;5101202;28;20120;-67
2023/03/02 11:53:12;;;;;;;14.18;7.38;;;12.90;47.10;;;;;;5089336;28;20021;-66
2023/03/02 11:55:44;;;;;;;13.88;6.95;;;12.80;47.10;;;;;;5092233;28;20035;-67
2023/03/02 11:58:16;;;;;;;13.18;7.43;;;12.80;47.20;;;;;;5086703;28;20036;-66
2023/03/02 12:00:42;;;;;;;14.55;7.05;;;12.80;47.10;;;;;;5092387;28;20102;-67
2023/03/02 12:03:14;;;;;;;14.93;8.07;;;12.70;47.10;;;;;;5092160;28;20043;-67
2023/03/02 12:05:41;;;;;;;;;;;12.70;47.10;;;;;;5088115;28;20039;-67
2023/03/02 12:08:19;;;;;;;11.27;5.90;;;12.80;47.30;;;;;;5093398;28;20355;-67
2023/03/02 12:11:17;;;;;;;14.00;6.97;;;12.80;47.30;;;;;;5089764;28;20043;-67
2023/03/02 12:13:56;;;;;;;17.15;7.70;;;12.80;47.30;;;;;;5072486;28;20041;-67
2023/03/02 12:16:37;;;;;;;15.40;7.40;;;12.80;47.30;;;;;;5091638;28;20060;-67
2023/03/02 12:19:22;;;;;;;14.13;7.03;;;12.80;47.30;;;;;;5089346;28;20416;-67
2023/03/02 12:21:54;;;;;;;11.80;6.45;;;12.70;47.30;;;;;;5087343;28;20093;-67
2023/03/02 12:24:33;;;;;;;14.50;7.18;;;12.60;47.40;;;;;;5077348;28;20025;-67
2023/03/02 12:27:06;;;;;;;11.95;6.28;;;12.50;47.30;;;;;;5089677;28;20395;-67
2023/03/02 12:29:45;;;;;;;14.38;7.38;;;12.40;47.30;;;;;;5093533;28;20023;-67
2023/03/02 12:32:29;;;;;;;13.90;7.72;;;12.40;47.30;;;;;;5087335;28;20074;-67
2023/03/02 12:35:00;;;;;;;13.73;6.65;;;12.30;47.40;;;;;;5093573;28;20039;-67
2023/03/02 12:37:41;;;;;;;13.38;6.97;;;12.30;47.50;;;;;;5093832;28;20046;-67
2023/03/02 12:40:32;;;;;;;12.48;7.00;;;12.30;47.50;;;;;;5094177;28;20061;-67
2023/03/02 12:43:16;;;;;;;13.07;7.10;;;12.20;47.50;;;;;;5076968;28;20055;-67
2023/03/02 12:46:24;;;;;;;12.73;6.78;;;12.20;47.50;;;;;;5090520;28;20028;-67
2023/03/02 12:48:59;;;;;;;14.20;6.50;;;12.10;47.60;;;;;;5093016;28;20123;-67
2023/03/02 12:51:28;;;;;;;12.85;6.88;;;12.10;47.80;;;;;;5093797;28;20107;-67
2023/03/02 12:54:20;;;;;;;13.25;7.38;;;12.10;47.90;;;;;;5089257;28;20063;-67